Sedna Desgagnes — CYQE — position and weather

sailwx.info

Track history (hours):
 
Tides and Currents Weather Stations Pressure Air Temp Water Temp Dewpoint Dewpoint Depression Visibility Wind Speed Wind Dir Waves Ship Positions

Sedna Desgagnes

Last reported at 2015-Nov-03 02:04 UTC. Time now 2016-Feb-08 08:18 UTC.
Position N 45°13' W 074°07'.
Warning: this ship's position is months out of date.

Length 139 m; draft 6.5 m.

Type: Ship. MMSI: 316015251.

Date/timePositionNaut miles runAvg speedWind from/ knotsBaromVisibWave heightAir tempDewpointWater temp
2015-Nov-03 02:04N 45°13' W 074°07'3 5.8
2015-Nov-03 01:33N 45°13' W 074°02'7 6.8
2015-Nov-03 00:33N 45°18' W 073°56'1 1.0
2015-Nov-02 23:33N 45°19' W 073°55'0 0.3
2015-Nov-02 22:33N 45°19' W 073°55'5 5.1
2015-Nov-02 21:34N 45°23' W 073°49'8 8.1
2015-Nov-02 20:34N 45°24' W 073°38'2 1.5
2015-Nov-02 19:31N 45°24' W 073°36'0 0.0
2015-Nov-02 18:25N 45°24' W 073°36'0 0.0
2015-Nov-02 17:31N 45°24' W 073°36'0 0.0
2015-Nov-02 16:31N 45°24' W 073°36'0 0.0
2015-Nov-02 15:31N 45°24' W 073°36'0 0.0
2015-Nov-02 14:31N 45°24' W 073°36'0 0.0
2015-Nov-02 13:31N 45°24' W 073°36'0 0.0
2015-Nov-02 12:31N 45°24' W 073°36'0 0.0
2015-Nov-02 11:31N 45°24' W 073°36'0 0.0
2015-Nov-02 10:31N 45°24' W 073°36'0 0.0
2015-Nov-02 09:31N 45°24' W 073°36'0 0.0
2015-Nov-02 08:25N 45°24' W 073°36'0 0.0
2015-Nov-02 07:19N 45°24' W 073°36'1 1.6
2015-Nov-02 06:33N 45°24' W 073°34'3 2.9
2015-Nov-02 05:33N 45°26' W 073°30'4 3.1
2015-Nov-02 04:13N 45°30' W 073°31'43 4.9
2015-Nov-01 19:27N 46°07' W 072°58'1011.1
2015-Nov-01 18:33N 46°13' W 072°47'1010.6
2015-Nov-01 17:33N 46°18' W 072°34'1111.3
2015-Nov-01 16:33N 46°26' W 072°22'1110.9
2015-Nov-01 15:33N 46°33' W 072°10'1211.9
2015-Nov-01 14:33N 46°39' W 071°55'  
Track history (hours):
 
Tides and Currents Weather Stations Pressure Air Temp Water Temp Dewpoint Dewpoint Depression Visibility Wind Speed Wind Dir Waves Ship Positions

Sedna Desgagnes

Last reported at 2015-Nov-03 02:04 UTC. Time now 2016-Feb-08 08:18 UTC.
Position N 45°13' W 074°07'.
Warning: this ship's position is months out of date.

Length 139 m; draft 6.5 m.

Type: Ship. MMSI: 316015251.

Date/timePositionNaut miles runAvg speedWind from/ knotsBaromVisibWave heightAir tempDewpointWater temp
2015-Nov-03 02:04N 45°13' W 074°07'3 5.8
2015-Nov-03 01:33N 45°13' W 074°02'7 6.8
2015-Nov-03 00:33N 45°18' W 073°56'1 1.0
2015-Nov-02 23:33N 45°19' W 073°55'0 0.3
2015-Nov-02 22:33N 45°19' W 073°55'5 5.1
2015-Nov-02 21:34N 45°23' W 073°49'8 8.1
2015-Nov-02 20:34N 45°24' W 073°38'2 1.5
2015-Nov-02 19:31N 45°24' W 073°36'0 0.0
2015-Nov-02 18:25N 45°24' W 073°36'0 0.0
2015-Nov-02 17:31N 45°24' W 073°36'0 0.0
2015-Nov-02 16:31N 45°24' W 073°36'0 0.0
2015-Nov-02 15:31N 45°24' W 073°36'0 0.0
2015-Nov-02 14:31N 45°24' W 073°36'0 0.0
2015-Nov-02 13:31N 45°24' W 073°36'0 0.0
2015-Nov-02 12:31N 45°24' W 073°36'0 0.0
2015-Nov-02 11:31N 45°24' W 073°36'0 0.0
2015-Nov-02 10:31N 45°24' W 073°36'0 0.0
2015-Nov-02 09:31N 45°24' W 073°36'0 0.0
2015-Nov-02 08:25N 45°24' W 073°36'0 0.0
2015-Nov-02 07:19N 45°24' W 073°36'1 1.6
2015-Nov-02 06:33N 45°24' W 073°34'3 2.9
2015-Nov-02 05:33N 45°26' W 073°30'4 3.1
2015-Nov-02 04:13N 45°30' W 073°31'43 4.9
2015-Nov-01 19:27N 46°07' W 072°58'1011.1
2015-Nov-01 18:33N 46°13' W 072°47'1010.6
2015-Nov-01 17:33N 46°18' W 072°34'1111.3
2015-Nov-01 16:33N 46°26' W 072°22'1110.9
2015-Nov-01 15:33N 46°33' W 072°10'1211.9
2015-Nov-01 14:33N 46°39' W 071°55'  

Dump ship's entire track history